Makara Of Exe — 2DGO5 — position and weather

sailwx.info

Track history (hours):
 
Tides and Currents Weather Stations Pressure Air Temp Water Temp Dewpoint Dewpoint Depression Visibility Wind Speed Wind Dir Waves Ship Positions

Makara Of Exe

Last reported at 2017-Aug-17 14:08 UTC. Time now 2017-Aug-17 15:16 UTC.
Position N 39°32' E 002°34'.

Length 15 m.

Type: Sailing vessel. MMSI: 235078777.

Date/timePositionNaut miles runAvg speedWind from/ knotsBaromVisibWave heightAir tempDewpointWater temp
2017-Aug-17 14:08N 39°32' E 002°34'1 6.3
2017-Aug-17 14:00N 39°32' E 002°35'1 1.8
2017-Aug-17 13:26N 39°31' E 002°34'3 6.8
2017-Aug-17 13:00N 39°29' E 002°32'4 4.7
2017-Aug-17 12:11N 39°28' E 002°27'1 6.4
2017-Aug-17 12:00N 39°29' E 002°27'18 0.7
2017-Aug-16 09:17N 39°45' E 002°36'2 6.6
2017-Aug-16 08:59N 39°47' E 002°38'3 0.2
2017-Aug-15 16:15N 39°48' E 002°41'0 0.0
2017-Aug-15 16:00N 39°48' E 002°41'0 0.0
2017-Aug-15 15:30N 39°48' E 002°41'1 2.0
2017-Aug-15 15:00N 39°49' E 002°41'24 0.5
2017-Aug-13 13:03N 39°51' E 003°12'0 3.9
2017-Aug-13 12:57N 39°50' E 003°12'2 0.1
2017-Aug-12 13:54N 39°50' E 003°09'  
Track history (hours):
 
Tides and Currents Weather Stations Pressure Air Temp Water Temp Dewpoint Dewpoint Depression Visibility Wind Speed Wind Dir Waves Ship Positions

Makara Of Exe

Last reported at 2017-Aug-17 14:08 UTC. Time now 2017-Aug-17 15:16 UTC.
Position N 39°32' E 002°34'.

Length 15 m.

Type: Sailing vessel. MMSI: 235078777.

Date/timePositionNaut miles runAvg speedWind from/ knotsBaromVisibWave heightAir tempDewpointWater temp
2017-Aug-17 14:08N 39°32' E 002°34'1 6.3
2017-Aug-17 14:00N 39°32' E 002°35'1 1.8
2017-Aug-17 13:26N 39°31' E 002°34'3 6.8
2017-Aug-17 13:00N 39°29' E 002°32'4 4.7
2017-Aug-17 12:11N 39°28' E 002°27'1 6.4
2017-Aug-17 12:00N 39°29' E 002°27'18 0.7
2017-Aug-16 09:17N 39°45' E 002°36'2 6.6
2017-Aug-16 08:59N 39°47' E 002°38'3 0.2
2017-Aug-15 16:15N 39°48' E 002°41'0 0.0
2017-Aug-15 16:00N 39°48' E 002°41'0 0.0
2017-Aug-15 15:30N 39°48' E 002°41'1 2.0
2017-Aug-15 15:00N 39°49' E 002°41'24 0.5
2017-Aug-13 13:03N 39°51' E 003°12'0 3.9
2017-Aug-13 12:57N 39°50' E 003°12'2 0.1
2017-Aug-12 13:54N 39°50' E 003°09'  

Dump ship's entire track history